createdAt,value
2023-03-13T00:01:17.569Z,8.7
2023-03-13T00:03:19.513Z,8.7
2023-03-13T00:05:21.684Z,8.6
2023-03-13T00:07:23.497Z,8.6
2023-03-13T00:09:25.467Z,8.6
2023-03-13T00:11:27.432Z,8.5
2023-03-13T00:13:32.481Z,8.6
2023-03-13T00:15:34.443Z,8.6
2023-03-13T00:17:36.435Z,8.6
2023-03-13T00:18:38.941Z,8.5
2023-03-13T00:20:40.911Z,8.5
2023-03-13T00:22:42.884Z,8.6
2023-03-13T00:24:44.872Z,8.5
2023-03-13T00:26:51.399Z,8.6
2023-03-13T00:28:53.351Z,8.6
2023-03-13T00:30:55.373Z,8.6
2023-03-13T00:32:57.330Z,8.6
2023-03-13T00:34:59.308Z,8.6
2023-03-13T00:39:03.317Z,8.7
2023-03-13T00:43:10.295Z,8.6
2023-03-13T00:45:12.251Z,8.6
2023-03-13T00:47:14.222Z,8.6
2023-03-13T00:49:16.199Z,8.7
2023-03-13T00:51:18.197Z,8.7
2023-03-13T00:53:20.144Z,8.6
2023-03-13T00:55:25.187Z,8.6
2023-03-13T00:57:27.179Z,8.6
2023-03-13T00:59:29.118Z,8.5
2023-03-13T01:01:31.128Z,8.4
2023-03-13T01:03:33.161Z,8.4
2023-03-13T01:05:35.066Z,8.4
2023-03-13T01:07:37.037Z,8.4
2023-03-13T01:14:48.550Z,8.4
2023-03-13T01:16:50.507Z,8.4
2023-03-13T01:18:52.478Z,8.3
2023-03-13T01:20:54.486Z,8.3
2023-03-13T01:22:59.482Z,8.3
2023-03-13T01:25:01.458Z,8.3
2023-03-13T01:27:03.445Z,8.3
2023-03-13T01:29:05.428Z,8.4
2023-03-13T01:31:07.454Z,8.4
2023-03-13T01:35:11.344Z,8.4
2023-03-13T01:37:16.378Z,8.5
2023-03-13T01:41:20.334Z,8.5
2023-03-13T01:43:27.515Z,8.5
2023-03-13T01:51:33.245Z,8.6
2023-03-13T01:53:35.242Z,8.6
2023-03-13T01:55:37.184Z,8.7
2023-03-13T01:57:39.155Z,8.8
2023-03-13T01:59:41.143Z,8.8
2023-03-13T02:01:43.244Z,8.8
2023-03-13T02:03:45.079Z,8.8
2023-03-13T02:05:50.114Z,8.9
2023-03-13T02:07:52.100Z,8.9
2023-03-13T02:09:54.055Z,8.9
2023-03-13T02:16:21.116Z,9
2023-03-13T02:22:29.990Z,9.1
2023-03-13T02:24:31.923Z,9.1
2023-03-13T02:34:44.856Z,9.2
2023-03-13T02:38:48.841Z,9.2
2023-03-13T02:40:50.801Z,9.2
2023-03-13T02:42:52.743Z,9.2
2023-03-13T02:46:59.814Z,9.3
2023-03-13T02:49:01.732Z,9.3
2023-03-13T02:51:03.722Z,9.4
2023-03-13T02:53:05.715Z,9.4
2023-03-13T02:55:07.682Z,9.3
2023-03-13T02:57:09.658Z,9.4
2023-03-13T02:59:11.615Z,9.4
2023-03-13T03:06:23.137Z,9.5
2023-03-13T03:08:25.118Z,9.6
2023-03-13T03:10:27.092Z,9.6
2023-03-13T03:16:36.149Z,9.7
2023-03-13T03:20:40.023Z,9.7
2023-03-13T03:22:42.026Z,9.8
2023-03-13T03:28:50.993Z,9.8
2023-03-13T03:34:56.940Z,9.9
2023-03-13T03:39:00.915Z,10
2023-03-13T03:41:02.894Z,10
2023-03-13T03:43:07.906Z,10
2023-03-13T03:45:09.868Z,10
2023-03-13T03:47:11.917Z,10.1
2023-03-13T03:49:13.810Z,10.1
2023-03-13T03:51:15.807Z,10.1
2023-03-13T03:53:17.801Z,10.2
2023-03-13T03:55:19.749Z,10.3
2023-03-13T03:57:24.798Z,10.2
2023-03-13T03:59:26.761Z,10.3
2023-03-13T04:01:28.740Z,10.3
2023-03-13T04:02:31.299Z,10.3
2023-03-13T04:04:33.260Z,10.4
2023-03-13T04:12:44.194Z,10.5
2023-03-13T04:18:50.118Z,10.6
2023-03-13T04:20:52.097Z,10.6
2023-03-13T04:22:54.083Z,10.7
2023-03-13T04:27:01.109Z,10.7
2023-03-13T04:29:03.100Z,10.7
2023-03-13T04:31:05.101Z,10.7
2023-03-13T04:33:07.105Z,10.8
2023-03-13T04:35:09.066Z,10.9
2023-03-13T04:37:11.005Z,10.9
2023-03-13T04:39:16.071Z,10.9
2023-03-13T04:41:18.034Z,10.9
2023-03-13T04:43:20.027Z,10.9
2023-03-13T04:47:23.983Z,10.9
2023-03-13T04:53:32.978Z,11.1
2023-03-13T04:58:39.497Z,11
2023-03-13T05:00:41.464Z,11.1
2023-03-13T05:02:43.305Z,11.1
2023-03-13T05:04:45.307Z,11.1
2023-03-13T05:06:50.343Z,11.1
2023-03-13T05:08:52.326Z,11.1
2023-03-13T05:10:54.319Z,11.1
2023-03-13T05:17:00.265Z,11.2
2023-03-13T05:41:30.157Z,11.3
2023-03-13T05:49:41.177Z,11.3
2023-03-13T05:51:43.180Z,11.3
2023-03-13T05:53:45.144Z,11.3
2023-03-13T05:56:01.800Z,11.3
2023-03-13T06:00:05.744Z,11.3
2023-03-13T06:02:10.800Z,11.3
2023-03-13T06:04:12.904Z,11.4
2023-03-13T06:06:14.774Z,11.4
2023-03-13T06:08:16.758Z,11.4
2023-03-13T06:10:18.736Z,11.4
2023-03-13T06:12:20.706Z,11.4
2023-03-13T06:14:22.706Z,11.3
2023-03-13T06:16:27.806Z,11.3
2023-03-13T06:18:31.243Z,11.3
2023-03-13T06:20:33.174Z,11.4
2023-03-13T06:22:35.163Z,11.4
2023-03-13T06:24:37.141Z,11.4
2023-03-13T06:26:39.115Z,11.4
2023-03-13T06:28:41.101Z,11.4
2023-03-13T06:30:46.160Z,11.4
2023-03-13T06:32:48.276Z,11.4
2023-03-13T06:34:50.137Z,11.4
2023-03-13T06:36:52.078Z,11.4
2023-03-13T06:38:54.098Z,11.4
2023-03-13T06:40:56.068Z,11.4
2023-03-13T06:42:58.031Z,11.4
2023-03-13T06:45:03.087Z,11.4
2023-03-13T06:47:05.128Z,11.4
2023-03-13T06:49:07.056Z,11.4
2023-03-13T06:50:09.576Z,11.4
2023-03-13T06:52:11.558Z,11.5
2023-03-13T06:54:13.526Z,11.5
2023-03-13T06:56:15.519Z,11.4
2023-03-13T07:00:22.525Z,11.5
2023-03-13T07:02:24.954Z,11.4
2023-03-13T07:04:26.942Z,11.5
2023-03-13T07:06:28.915Z,11.5
2023-03-13T07:08:30.890Z,11.5
2023-03-13T07:10:32.859Z,11.5
2023-03-13T07:12:37.923Z,11.5
2023-03-13T07:14:39.907Z,11.5
2023-03-13T07:16:41.929Z,11.6
2023-03-13T07:18:43.859Z,11.6
2023-03-13T07:20:45.825Z,11.6
2023-03-13T07:22:47.817Z,11.6
2023-03-13T07:24:49.877Z,11.7
2023-03-13T07:27:06.196Z,11.7
2023-03-13T07:28:56.816Z,11.7
2023-03-13T07:30:58.793Z,11.7
2023-03-13T07:33:00.973Z,11.7
2023-03-13T07:35:02.746Z,11.7
2023-03-13T07:37:04.884Z,11.7
2023-03-13T07:39:06.700Z,11.7
2023-03-13T07:41:11.760Z,11.8
2023-03-13T07:43:13.752Z,11.8
2023-03-13T07:45:15.738Z,11.8
2023-03-13T07:46:18.284Z,11.8
2023-03-13T07:48:20.225Z,11.8
2023-03-13T07:50:22.273Z,11.8
2023-03-13T07:52:24.180Z,11.8
2023-03-13T07:54:29.229Z,11.8
2023-03-13T07:56:31.214Z,11.8
2023-03-13T07:58:33.186Z,11.8
2023-03-13T08:00:35.160Z,11.8
2023-03-13T08:02:37.240Z,11.8
2023-03-13T08:04:39.139Z,11.8
2023-03-13T08:06:41.152Z,11.7
2023-03-13T08:08:46.144Z,11.7
2023-03-13T08:10:48.115Z,11.7
2023-03-13T08:12:50.110Z,11.7
2023-03-13T08:16:54.099Z,11.8
2023-03-13T08:18:56.050Z,11.7
2023-03-13T08:20:58.027Z,11.6
2023-03-13T08:23:03.078Z,11.8
2023-03-13T08:25:05.056Z,11.8
2023-03-13T08:27:07.026Z,11.8
2023-03-13T08:33:12.984Z,11.8
2023-03-13T08:35:14.976Z,11.8
2023-03-13T08:37:20.018Z,11.7
2023-03-13T08:39:22.012Z,11.7
2023-03-13T08:41:23.963Z,11.6
2023-03-13T08:50:37.464Z,12
2023-03-13T08:52:39.452Z,11.9
2023-03-13T08:56:43.428Z,12.1
2023-03-13T08:58:45.415Z,12.2
2023-03-13T09:02:49.421Z,12.3
2023-03-13T09:04:54.400Z,12.2
2023-03-13T09:06:56.383Z,12.3
2023-03-13T09:08:58.390Z,12.2
2023-03-13T09:11:00.340Z,12.3
2023-03-13T09:15:04.339Z,12.3
2023-03-13T09:19:11.359Z,12.4
2023-03-13T09:21:13.328Z,12.4
2023-03-13T09:23:15.290Z,12.3
2023-03-13T09:25:17.269Z,12.4
2023-03-13T09:33:28.245Z,12.3
2023-03-13T09:35:30.245Z,12.4
2023-03-13T09:37:32.196Z,12.5
2023-03-13T09:41:56.807Z,12.3
2023-03-13T09:43:58.808Z,12.4
2023-03-13T09:46:03.948Z,12.5
2023-03-13T09:48:05.797Z,12.7
2023-03-13T09:50:07.757Z,12.8
2023-03-13T09:52:09.764Z,12.9
2023-03-13T09:54:11.742Z,13.2
2023-03-13T09:56:13.690Z,13.2
2023-03-13T09:58:15.679Z,12.8
2023-03-13T10:00:20.830Z,12.8
2023-03-13T10:02:22.721Z,13
2023-03-13T10:06:26.643Z,12.9
2023-03-13T10:08:28.620Z,12.4
2023-03-13T10:10:30.576Z,12.7
2023-03-13T10:12:32.559Z,13.2
2023-03-13T10:16:39.595Z,14.2
2023-03-13T10:18:41.551Z,14.6
2023-03-13T10:20:43.517Z,15
2023-03-13T10:22:45.489Z,15
2023-03-13T10:30:56.484Z,15.7
2023-03-13T10:32:58.475Z,15.8
2023-03-13T10:34:00.932Z,15.7
2023-03-13T10:36:03.073Z,15.5
2023-03-13T10:38:04.875Z,15.5
2023-03-13T10:40:06.836Z,15.3
2023-03-13T10:42:11.881Z,15.4
2023-03-13T10:44:13.842Z,15.4
2023-03-13T10:46:15.818Z,15.3
2023-03-13T10:50:19.756Z,15.3
2023-03-13T10:52:21.739Z,15.3
2023-03-13T10:54:23.695Z,15.4
2023-03-13T10:56:28.714Z,15.6
2023-03-13T10:58:30.704Z,15.7
2023-03-13T11:00:32.656Z,16.2
2023-03-13T11:02:34.728Z,16.3
2023-03-13T11:04:36.644Z,16.4
2023-03-13T11:06:38.560Z,16.1
2023-03-13T11:08:40.600Z,16
2023-03-13T11:10:45.583Z,16
2023-03-13T11:12:47.528Z,16.1
2023-03-13T11:14:49.586Z,16
2023-03-13T11:16:51.459Z,16.8
2023-03-13T11:18:53.418Z,16.7
2023-03-13T11:20:56.557Z,17.4
2023-03-13T11:22:57.354Z,17.2
2023-03-13T11:25:02.409Z,17.6
2023-03-13T11:27:05.359Z,17.6
2023-03-13T11:29:06.319Z,18.5
2023-03-13T11:30:08.843Z,18.5
2023-03-13T11:32:10.814Z,18.6
2023-03-13T11:34:12.784Z,18.6
2023-03-13T11:36:15.096Z,18.6
2023-03-13T11:38:19.777Z,19.1
2023-03-13T11:40:21.725Z,19.3
2023-03-13T11:42:23.676Z,18.8
2023-03-13T11:44:25.635Z,17.7
2023-03-13T11:46:27.712Z,18
2023-03-13T11:48:29.550Z,18.4
2023-03-13T11:50:31.505Z,18.7
2023-03-13T11:52:36.537Z,18
2023-03-13T11:54:38.505Z,17.8
2023-03-13T11:56:40.439Z,17.9
2023-03-13T11:58:42.417Z,18.6
2023-03-13T12:02:46.315Z,18.1
2023-03-13T12:04:48.342Z,18.1
2023-03-13T12:06:53.275Z,18.5
2023-03-13T12:08:55.239Z,18.9
2023-03-13T12:10:58.680Z,18.6
2023-03-13T12:13:00.600Z,18
2023-03-13T12:15:02.534Z,17
2023-03-13T12:17:04.863Z,16.8
2023-03-13T12:19:06.843Z,16.9
2023-03-13T12:23:13.821Z,17.4
2023-03-13T12:25:15.757Z,17
2023-03-13T12:26:18.276Z,16.8
2023-03-13T12:54:51.815Z,19.3
2023-03-13T12:56:53.761Z,19.1
2023-03-13T12:58:55.728Z,18.8
2023-03-13T13:00:57.667Z,18.9
2023-03-13T13:03:02.693Z,19.2
2023-03-13T13:05:04.649Z,19.1
2023-03-13T13:07:06.585Z,18.8
2023-03-13T13:11:10.475Z,17.7
2023-03-13T13:15:14.383Z,17.9
2023-03-13T13:17:19.424Z,18.6
2023-03-13T13:19:21.344Z,18.6
2023-03-13T13:21:23.283Z,18.3
2023-03-13T13:23:46.040Z,17.9
2023-03-13T13:25:47.950Z,18
2023-03-13T13:27:50.002Z,18.1
2023-03-13T13:29:54.909Z,17.8
2023-03-13T13:31:57.040Z,18
2023-03-13T13:33:58.789Z,18.2
2023-03-13T13:36:00.758Z,18.3
2023-03-13T13:38:02.691Z,18
2023-03-13T13:40:04.663Z,18.2
2023-03-13T13:42:06.552Z,18.2
2023-03-13T13:44:11.574Z,18.3
2023-03-13T13:48:15.427Z,17.9
2023-03-13T13:52:19.302Z,17.3
2023-03-13T13:54:21.239Z,17.3
2023-03-13T13:56:23.201Z,17.2
2023-03-13T13:58:28.238Z,17.2
2023-03-13T14:00:30.132Z,17.4
2023-03-13T14:02:32.085Z,17.5
2023-03-13T14:04:34.039Z,17.5
2023-03-13T14:06:35.959Z,17.5
2023-03-13T14:08:37.900Z,17.3
2023-03-13T14:10:39.867Z,18
2023-03-13T14:16:48.784Z,16.9
2023-03-13T14:17:51.279Z,16.9
2023-03-13T14:19:53.242Z,17
2023-03-13T14:21:55.181Z,17
2023-03-13T14:23:57.150Z,16.9
2023-03-13T14:26:02.206Z,17.4
2023-03-13T14:28:04.142Z,17.7
2023-03-13T14:30:06.106Z,18
2023-03-13T14:34:10.025Z,17.8
2023-03-13T14:36:12.047Z,17.4
2023-03-13T14:40:18.944Z,17.7
2023-03-13T14:42:20.897Z,17.9
2023-03-13T14:44:22.863Z,17.6
2023-03-13T14:48:26.735Z,17.9
2023-03-13T14:50:28.694Z,17.8
2023-03-13T14:52:30.634Z,17.5
2023-03-13T14:54:35.670Z,17.4
2023-03-13T14:56:37.602Z,17.2
2023-03-13T14:58:39.560Z,17.2
2023-03-13T15:00:41.593Z,17.4
2023-03-13T15:02:43.487Z,17.3
2023-03-13T15:04:45.483Z,17.3
2023-03-13T15:06:47.384Z,17
2023-03-13T15:08:52.424Z,17
2023-03-13T15:10:54.357Z,17
2023-03-13T15:16:00.940Z,17
2023-03-13T15:18:02.768Z,17
2023-03-13T15:20:04.729Z,17
2023-03-13T15:22:09.755Z,17.2
2023-03-13T15:24:11.703Z,17.3
2023-03-13T15:26:13.652Z,17.2
2023-03-13T15:28:15.634Z,17
2023-03-13T15:30:17.570Z,17
2023-03-13T15:32:19.536Z,17.1
2023-03-13T15:34:21.488Z,17
2023-03-13T15:36:26.510Z,17.2
2023-03-13T15:38:28.480Z,17
2023-03-13T15:40:30.435Z,17.2
2023-03-13T15:42:32.388Z,17.3
2023-03-13T15:44:34.331Z,17.2
2023-03-13T15:46:36.290Z,17.3
2023-03-13T15:50:43.302Z,17.3
2023-03-13T15:52:45.245Z,17.3
2023-03-13T15:56:49.164Z,17.2
2023-03-13T15:58:51.173Z,17.4
2023-03-13T16:00:53.147Z,17.2
2023-03-13T16:02:55.051Z,17.4
2023-03-13T16:05:00.130Z,17.5
2023-03-13T16:09:03.998Z,17.7
2023-03-13T16:10:06.514Z,17.5
2023-03-13T16:12:08.483Z,17.5
2023-03-13T16:14:10.406Z,17.3
2023-03-13T16:16:12.398Z,17.3
2023-03-13T16:18:17.458Z,17.1
2023-03-13T16:20:19.400Z,17.3
2023-03-13T16:26:25.273Z,17.5
2023-03-13T16:28:27.239Z,16.6
2023-03-13T16:30:29.214Z,16
2023-03-13T16:32:34.264Z,15.5
2023-03-13T16:34:36.188Z,15.4
2023-03-13T16:36:38.146Z,15.3
2023-03-13T16:38:40.124Z,15.3
2023-03-13T16:40:42.104Z,15.2
2023-03-13T16:42:44.077Z,15.1
2023-03-13T16:44:46.096Z,15.1
2023-03-13T16:47:04.655Z,15
2023-03-13T16:48:53.101Z,15
2023-03-13T16:50:55.065Z,14.9
2023-03-13T16:52:57.086Z,14.9
2023-03-13T16:54:59.038Z,14.8
2023-03-13T16:57:01.012Z,14.8
2023-03-13T16:59:03.032Z,14.7
2023-03-13T17:01:08.112Z,14.6
2023-03-13T17:03:10.052Z,14.5
2023-03-13T17:05:12.015Z,14.5
2023-03-13T17:07:32.682Z,14.4
2023-03-13T17:09:34.673Z,14.4
2023-03-13T17:11:36.653Z,14.3
2023-03-13T17:13:41.724Z,14.2
2023-03-13T17:15:43.736Z,14.2
2023-03-13T17:17:46.210Z,14.2
2023-03-13T17:19:47.677Z,14
2023-03-13T17:21:49.668Z,14
2023-03-13T17:23:51.680Z,14
2023-03-13T17:25:53.666Z,13.9
2023-03-13T17:27:58.722Z,13.8
2023-03-13T17:30:00.806Z,13.8
2023-03-13T17:32:04.079Z,13.6
2023-03-13T17:34:04.705Z,13.5
2023-03-13T17:36:06.759Z,13.5
2023-03-13T17:38:08.688Z,13.5
2023-03-13T17:40:10.672Z,13.5
2023-03-13T17:42:15.756Z,13.4
2023-03-13T17:46:19.788Z,13.4
2023-03-13T17:52:25.773Z,13.2
2023-03-13T18:01:40.937Z,13
2023-03-13T18:03:42.833Z,13
2023-03-13T18:05:44.846Z,12.9
2023-03-13T18:07:46.865Z,12.9
2023-03-13T18:09:51.922Z,12.9
2023-03-13T18:15:57.954Z,12.7
2023-03-13T18:17:59.894Z,12.6
2023-03-13T18:24:08.970Z,12.4
2023-03-13T18:26:12.520Z,12.4
2023-03-13T18:34:18.981Z,12.4
2023-03-13T18:36:21.005Z,12.2
2023-03-13T18:38:26.056Z,12.1
2023-03-13T18:46:34.079Z,12.1
2023-03-13T18:52:43.153Z,12
2023-03-13T18:54:45.183Z,11.9
2023-03-13T18:56:47.155Z,11.9
2023-03-13T18:57:49.706Z,12
2023-03-13T18:59:51.682Z,11.9
2023-03-13T19:01:53.718Z,11.7
2023-03-13T19:03:55.721Z,11.7
2023-03-13T19:06:00.767Z,11.6
2023-03-13T19:08:02.749Z,11.6
2023-03-13T19:10:04.750Z,11.6
2023-03-13T19:12:06.762Z,11.5
2023-03-13T19:14:08.778Z,11.5
2023-03-13T19:16:10.782Z,11.5
2023-03-13T19:18:12.805Z,11.5
2023-03-13T19:20:17.830Z,11.6
2023-03-13T19:22:19.823Z,11.5
2023-03-13T19:24:21.829Z,11.5
2023-03-13T19:26:23.829Z,11.5
2023-03-13T19:28:25.840Z,11.4
2023-03-13T19:30:27.833Z,11.4
2023-03-13T19:32:29.894Z,11.4
2023-03-13T19:34:34.909Z,11.3
2023-03-13T19:36:37.311Z,11.2
2023-03-13T19:38:38.884Z,11.2
2023-03-13T19:40:40.899Z,11.1
2023-03-13T19:42:42.883Z,11.2
2023-03-13T19:44:44.900Z,11.2
2023-03-13T19:46:46.909Z,11.2
2023-03-13T19:48:51.958Z,11.2
2023-03-13T19:52:55.950Z,11.2
2023-03-13T19:58:02.468Z,11.2
2023-03-13T20:00:04.480Z,11.3
2023-03-13T20:02:09.683Z,11.3
2023-03-13T20:04:11.545Z,11.4
2023-03-13T20:06:13.543Z,11.3
2023-03-13T20:08:15.547Z,11.3
2023-03-13T20:10:17.535Z,11.2
2023-03-13T20:12:19.588Z,11.2
2023-03-13T20:14:21.532Z,11.1
2023-03-13T20:16:26.578Z,11.1
2023-03-13T20:18:28.586Z,11
2023-03-13T20:20:30.582Z,11
2023-03-13T20:22:32.590Z,11
2023-03-13T20:24:34.608Z,11
2023-03-13T20:26:36.593Z,11
2023-03-13T20:28:38.597Z,11
2023-03-13T20:30:43.760Z,11
2023-03-13T20:32:58.874Z,11
2023-03-13T20:34:48.623Z,11
2023-03-13T20:36:50.648Z,11
2023-03-13T20:38:52.596Z,11.1
2023-03-13T20:40:54.590Z,11.1
2023-03-13T20:45:01.657Z,11.2
2023-03-13T20:49:05.653Z,11.2
2023-03-13T20:51:28.494Z,11.3
2023-03-13T20:53:30.467Z,11.3
2023-03-13T20:55:32.466Z,11.3
2023-03-13T20:57:37.516Z,11.3
2023-03-13T20:59:39.506Z,11.3
2023-03-13T21:01:41.577Z,11.2
2023-03-13T21:03:43.497Z,11.2
2023-03-13T21:05:45.498Z,11.3
2023-03-13T21:09:49.484Z,11.3
2023-03-13T21:13:56.532Z,11.5
2023-03-13T21:18:00.493Z,11.5
2023-03-13T21:20:02.552Z,11.5
2023-03-13T21:22:04.518Z,11.5
2023-03-13T21:24:06.504Z,11.5
2023-03-13T21:26:11.576Z,11.5
2023-03-13T21:28:13.549Z,11.4
2023-03-13T21:30:15.582Z,11.5
2023-03-13T21:32:17.528Z,11.6
2023-03-13T21:34:19.554Z,11.5
2023-03-13T21:36:21.522Z,11.5
2023-03-13T21:38:23.526Z,11.5
2023-03-13T21:40:28.605Z,11.7
2023-03-13T21:42:30.560Z,11.7
2023-03-13T21:44:32.579Z,11.6
2023-03-13T21:47:37.227Z,11.6
2023-03-13T21:49:39.111Z,11.6
2023-03-13T21:51:41.077Z,11.7
2023-03-13T21:57:50.146Z,11.7
2023-03-13T21:59:52.127Z,11.7
2023-03-13T22:01:54.108Z,11.7
2023-03-13T22:08:03.134Z,11.7
2023-03-13T22:10:05.134Z,11.7
2023-03-13T22:14:09.167Z,11.7
2023-03-13T22:16:11.139Z,11.8
2023-03-13T22:20:15.128Z,11.8
2023-03-13T22:22:20.181Z,11.9
2023-03-13T22:24:22.194Z,11.8
2023-03-13T22:26:24.175Z,11.8
2023-03-13T22:28:26.176Z,11.8
2023-03-13T22:30:28.162Z,11.9
2023-03-13T22:32:30.276Z,11.9
2023-03-13T22:34:32.147Z,12
2023-03-13T22:36:37.218Z,11.9
2023-03-13T22:38:39.213Z,11.9
2023-03-13T22:40:41.229Z,11.9
2023-03-13T22:41:43.741Z,11.8
2023-03-13T22:43:45.744Z,11.8
2023-03-13T22:45:47.731Z,11.8
2023-03-13T22:47:49.783Z,11.8
2023-03-13T22:56:00.776Z,11.6
2023-03-13T22:58:02.770Z,11.6
2023-03-13T23:00:04.784Z,11.6
2023-03-13T23:04:11.807Z,11.4
2023-03-13T23:06:13.885Z,11.4
2023-03-13T23:08:15.813Z,11.4
2023-03-13T23:10:17.810Z,11.4
2023-03-13T23:12:19.831Z,11.3
2023-03-13T23:14:21.791Z,11.3
2023-03-13T23:16:24.001Z,11.3
2023-03-13T23:18:28.852Z,11.4
2023-03-13T23:20:30.867Z,11.4
2023-03-13T23:22:33.074Z,11.4
2023-03-13T23:24:34.858Z,11.4
2023-03-13T23:26:36.828Z,11.4
2023-03-13T23:28:38.834Z,11.5
2023-03-13T23:30:40.822Z,11.6
2023-03-13T23:32:46.049Z,11.7
2023-03-13T23:34:47.887Z,11.7
2023-03-13T23:36:49.899Z,11.6
2023-03-13T23:37:52.432Z,11.7
2023-03-13T23:39:54.426Z,11.7
2023-03-13T23:52:09.458Z,11.8
2023-03-13T23:54:12.965Z,11.9
